sensor_id;sensor_type;location;lat;lon;timestamp;temperature;humidity
23715;DHT22;12036;50.858;4.472;2023-04-15T00:01:23;9.60;99.90
23715;DHT22;12036;50.858;4.472;2023-04-15T00:03:53;9.60;99.90
23715;DHT22;12036;50.858;4.472;2023-04-15T00:06:20;9.70;99.90
23715;DHT22;12036;50.858;4.472;2023-04-15T00:08:46;9.70;99.90
23715;DHT22;12036;50.858;4.472;2023-04-15T00:11:12;9.70;99.90
23715;DHT22;12036;50.858;4.472;2023-04-15T00:13:38;9.70;99.90
23715;DHT22;12036;50.858;4.472;2023-04-15T00:16:05;9.70;99.90
23715;DHT22;12036;50.858;4.472;2023-04-15T00:18:31;9.70;99.90
23715;DHT22;12036;50.858;4.472;2023-04-15T00:20:57;9.80;99.90
23715;DHT22;12036;50.858;4.472;2023-04-15T00:23:24;9.80;99.90
23715;DHT22;12036;50.858;4.472;2023-04-15T00:25:49;9.70;99.90
23715;DHT22;12036;50.858;4.472;2023-04-15T00:28:15;9.70;99.90
23715;DHT22;12036;50.858;4.472;2023-04-15T00:30:42;9.70;99.90
23715;DHT22;12036;50.858;4.472;2023-04-15T00:33:08;9.70;99.90
23715;DHT22;12036;50.858;4.472;2023-04-15T00:35:34;9.70;99.90
23715;DHT22;12036;50.858;4.472;2023-04-15T00:38:01;9.60;99.90
23715;DHT22;12036;50.858;4.472;2023-04-15T00:40:26;9.70;99.90
23715;DHT22;12036;50.858;4.472;2023-04-15T00:42:52;9.60;99.90
23715;DHT22;12036;50.858;4.472;2023-04-15T00:45:18;9.60;99.90
23715;DHT22;12036;50.858;4.472;2023-04-15T00:47:45;9.60;99.90
23715;DHT22;12036;50.858;4.472;2023-04-15T00:50:11;9.60;99.90
23715;DHT22;12036;50.858;4.472;2023-04-15T00:52:38;9.60;99.90
23715;DHT22;12036;50.858;4.472;2023-04-15T00:55:04;9.60;99.90
23715;DHT22;12036;50.858;4.472;2023-04-15T00:57:31;9.60;99.90
23715;DHT22;12036;50.858;4.472;2023-04-15T00:59:57;9.60;99.90
23715;DHT22;12036;50.858;4.472;2023-04-15T01:02:23;9.60;99.90
23715;DHT22;12036;50.858;4.472;2023-04-15T01:04:49;9.60;99.90
23715;DHT22;12036;50.858;4.472;2023-04-15T01:07:15;9.60;99.90
23715;DHT22;12036;50.858;4.472;2023-04-15T01:09:41;9.60;99.90
23715;DHT22;12036;50.858;4.472;2023-04-15T01:12:07;9.60;99.90
23715;DHT22;12036;50.858;4.472;2023-04-15T01:14:35;9.60;99.90
23715;DHT22;12036;50.858;4.472;2023-04-15T01:17:00;9.60;99.90
23715;DHT22;12036;50.858;4.472;2023-04-15T01:19:27;9.60;99.90
23715;DHT22;12036;50.858;4.472;2023-04-15T01:21:53;9.60;99.90
23715;DHT22;12036;50.858;4.472;2023-04-15T01:24:18;9.60;99.90
23715;DHT22;12036;50.858;4.472;2023-04-15T01:26:44;9.60;99.90
23715;DHT22;12036;50.858;4.472;2023-04-15T01:29:11;9.60;99.90
23715;DHT22;12036;50.858;4.472;2023-04-15T01:31:37;9.50;99.90
23715;DHT22;12036;50.858;4.472;2023-04-15T01:34:03;9.50;99.90
23715;DHT22;12036;50.858;4.472;2023-04-15T01:36:29;9.50;99.90
23715;DHT22;12036;50.858;4.472;2023-04-15T01:38:55;9.50;99.90
23715;DHT22;12036;50.858;4.472;2023-04-15T01:41:25;9.50;99.90
23715;DHT22;12036;50.858;4.472;2023-04-15T01:43:51;9.50;99.90
23715;DHT22;12036;50.858;4.472;2023-04-15T01:46:17;9.50;99.90
23715;DHT22;12036;50.858;4.472;2023-04-15T01:48:43;9.50;99.90
23715;DHT22;12036;50.858;4.472;2023-04-15T01:51:09;9.50;99.90
23715;DHT22;12036;50.858;4.472;2023-04-15T01:53:34;9.50;99.90
23715;DHT22;12036;50.858;4.472;2023-04-15T01:56:00;9.50;99.90
23715;DHT22;12036;50.858;4.472;2023-04-15T01:58:26;9.50;99.90
23715;DHT22;12036;50.858;4.472;2023-04-15T02:00:52;9.50;99.90
23715;DHT22;12036;50.858;4.472;2023-04-15T02:03:18;9.50;99.90
23715;DHT22;12036;50.858;4.472;2023-04-15T02:05:43;9.60;99.90
23715;DHT22;12036;50.858;4.472;2023-04-15T02:08:09;9.60;99.90
23715;DHT22;12036;50.858;4.472;2023-04-15T02:10:34;9.60;99.90
23715;DHT22;12036;50.858;4.472;2023-04-15T02:13:00;9.60;99.90
23715;DHT22;12036;50.858;4.472;2023-04-15T02:15:26;9.60;99.90
23715;DHT22;12036;50.858;4.472;2023-04-15T02:17:52;9.60;99.90
23715;DHT22;12036;50.858;4.472;2023-04-15T02:20:20;9.60;99.90
23715;DHT22;12036;50.858;4.472;2023-04-15T02:22:46;9.60;99.90
23715;DHT22;12036;50.858;4.472;2023-04-15T02:25:13;9.60;99.90
23715;DHT22;12036;50.858;4.472;2023-04-15T02:27:38;9.60;99.90
23715;DHT22;12036;50.858;4.472;2023-04-15T02:30:04;9.60;99.90
23715;DHT22;12036;50.858;4.472;2023-04-15T02:32:31;9.60;99.90
23715;DHT22;12036;50.858;4.472;2023-04-15T02:35:02;9.60;99.90
23715;DHT22;12036;50.858;4.472;2023-04-15T02:37:28;9.60;99.90
23715;DHT22;12036;50.858;4.472;2023-04-15T02:39:55;9.60;99.90
23715;DHT22;12036;50.858;4.472;2023-04-15T02:42:21;9.60;99.90
23715;DHT22;12036;50.858;4.472;2023-04-15T02:44:46;9.60;99.90
23715;DHT22;12036;50.858;4.472;2023-04-15T02:47:12;9.50;99.90
23715;DHT22;12036;50.858;4.472;2023-04-15T02:49:38;9.60;99.90
23715;DHT22;12036;50.858;4.472;2023-04-15T02:52:05;9.50;99.90
23715;DHT22;12036;50.858;4.472;2023-04-15T02:54:31;9.60;99.90
23715;DHT22;12036;50.858;4.472;2023-04-15T02:56:58;9.60;99.90
23715;DHT22;12036;50.858;4.472;2023-04-15T02:59:24;9.60;99.90
23715;DHT22;12036;50.858;4.472;2023-04-15T03:01:50;9.60;99.90
23715;DHT22;12036;50.858;4.472;2023-04-15T03:04:16;9.60;99.90
23715;DHT22;12036;50.858;4.472;2023-04-15T03:06:41;9.60;99.90
23715;DHT22;12036;50.858;4.472;2023-04-15T03:09:07;9.60;99.90
23715;DHT22;12036;50.858;4.472;2023-04-15T03:11:33;9.60;99.90
23715;DHT22;12036;50.858;4.472;2023-04-15T03:13:59;9.60;99.90
23715;DHT22;12036;50.858;4.472;2023-04-15T03:16:25;9.50;99.90
23715;DHT22;12036;50.858;4.472;2023-04-15T03:18:51;9.50;99.90
23715;DHT22;12036;50.858;4.472;2023-04-15T03:21:17;9.40;99.90
23715;DHT22;12036;50.858;4.472;2023-04-15T03:23:44;9.50;99.90
23715;DHT22;12036;50.858;4.472;2023-04-15T03:26:26;9.50;99.90
23715;DHT22;12036;50.858;4.472;2023-04-15T03:28:52;9.50;99.90
23715;DHT22;12036;50.858;4.472;2023-04-15T03:31:17;9.50;99.90
23715;DHT22;12036;50.858;4.472;2023-04-15T03:33:43;9.40;99.90
23715;DHT22;12036;50.858;4.472;2023-04-15T03:36:09;9.40;99.90
23715;DHT22;12036;50.858;4.472;2023-04-15T03:38:34;9.50;99.90
23715;DHT22;12036;50.858;4.472;2023-04-15T03:41:00;9.40;99.90
23715;DHT22;12036;50.858;4.472;2023-04-15T03:43:25;9.40;99.90
23715;DHT22;12036;50.858;4.472;2023-04-15T03:45:51;9.40;99.90
23715;DHT22;12036;50.858;4.472;2023-04-15T03:48:17;9.40;99.90
23715;DHT22;12036;50.858;4.472;2023-04-15T03:50:42;9.40;99.90
23715;DHT22;12036;50.858;4.472;2023-04-15T03:53:08;9.30;99.90
23715;DHT22;12036;50.858;4.472;2023-04-15T03:55:34;9.30;99.90
23715;DHT22;12036;50.858;4.472;2023-04-15T03:57:59;9.30;99.90
23715;DHT22;12036;50.858;4.472;2023-04-15T04:00:25;9.30;99.90
23715;DHT22;12036;50.858;4.472;2023-04-15T04:02:51;9.30;99.90
23715;DHT22;12036;50.858;4.472;2023-04-15T04:05:16;9.30;99.90
23715;DHT22;12036;50.858;4.472;2023-04-15T04:07:42;9.30;99.90
23715;DHT22;12036;50.858;4.472;2023-04-15T04:10:08;9.20;99.90
23715;DHT22;12036;50.858;4.472;2023-04-15T04:12:33;9.30;99.90
23715;DHT22;12036;50.858;4.472;2023-04-15T04:14:59;9.30;99.90
23715;DHT22;12036;50.858;4.472;2023-04-15T04:17:25;9.20;99.90
23715;DHT22;12036;50.858;4.472;2023-04-15T04:19:50;9.20;99.90
23715;DHT22;12036;50.858;4.472;2023-04-15T04:22:16;9.20;99.90
23715;DHT22;12036;50.858;4.472;2023-04-15T04:24:42;9.20;99.90
23715;DHT22;12036;50.858;4.472;2023-04-15T04:27:07;9.20;99.90
23715;DHT22;12036;50.858;4.472;2023-04-15T04:29:33;9.20;99.90
23715;DHT22;12036;50.858;4.472;2023-04-15T04:31:59;9.20;99.90
23715;DHT22;12036;50.858;4.472;2023-04-15T04:34:24;9.10;99.90
23715;DHT22;12036;50.858;4.472;2023-04-15T04:36:50;9.00;99.90
23715;DHT22;12036;50.858;4.472;2023-04-15T04:39:15;9.00;99.90
23715;DHT22;12036;50.858;4.472;2023-04-15T04:41:41;9.00;99.90
23715;DHT22;12036;50.858;4.472;2023-04-15T04:44:07;9.00;99.90
23715;DHT22;12036;50.858;4.472;2023-04-15T04:46:32;9.00;99.90
23715;DHT22;12036;50.858;4.472;2023-04-15T04:48:58;9.00;99.90
23715;DHT22;12036;50.858;4.472;2023-04-15T04:51:23;9.00;99.90
23715;DHT22;12036;50.858;4.472;2023-04-15T04:53:49;9.00;99.90
23715;DHT22;12036;50.858;4.472;2023-04-15T04:56:15;8.90;99.90
23715;DHT22;12036;50.858;4.472;2023-04-15T04:58:40;9.00;99.90
23715;DHT22;12036;50.858;4.472;2023-04-15T05:01:06;8.90;99.90
23715;DHT22;12036;50.858;4.472;2023-04-15T05:03:32;8.90;99.90
23715;DHT22;12036;50.858;4.472;2023-04-15T05:05:58;8.90;99.90
23715;DHT22;12036;50.858;4.472;2023-04-15T05:08:23;9.00;99.90
23715;DHT22;12036;50.858;4.472;2023-04-15T05:10:49;9.00;99.90
23715;DHT22;12036;50.858;4.472;2023-04-15T05:13:15;9.00;99.90
23715;DHT22;12036;50.858;4.472;2023-04-15T05:15:40;8.90;99.90
23715;DHT22;12036;50.858;4.472;2023-04-15T05:18:07;9.00;99.90
23715;DHT22;12036;50.858;4.472;2023-04-15T05:20:33;9.00;99.90
23715;DHT22;12036;50.858;4.472;2023-04-15T05:22:58;9.00;99.90
23715;DHT22;12036;50.858;4.472;2023-04-15T05:25:24;9.00;99.90
23715;DHT22;12036;50.858;4.472;2023-04-15T05:27:50;9.00;99.90
23715;DHT22;12036;50.858;4.472;2023-04-15T05:30:16;9.00;99.90
23715;DHT22;12036;50.858;4.472;2023-04-15T05:32:41;9.10;99.90
23715;DHT22;12036;50.858;4.472;2023-04-15T05:35:07;9.20;99.90
23715;DHT22;12036;50.858;4.472;2023-04-15T05:37:33;9.20;99.90
23715;DHT22;12036;50.858;4.472;2023-04-15T05:39:58;9.10;99.90
23715;DHT22;12036;50.858;4.472;2023-04-15T05:42:24;9.20;99.90
23715;DHT22;12036;50.858;4.472;2023-04-15T05:44:49;9.20;99.90
23715;DHT22;12036;50.858;4.472;2023-04-15T05:47:15;9.20;99.90
23715;DHT22;12036;50.858;4.472;2023-04-15T05:49:41;9.10;99.90
23715;DHT22;12036;50.858;4.472;2023-04-15T05:52:06;9.10;99.90
23715;DHT22;12036;50.858;4.472;2023-04-15T05:54:32;9.00;99.90
23715;DHT22;12036;50.858;4.472;2023-04-15T05:56:59;9.10;99.90
23715;DHT22;12036;50.858;4.472;2023-04-15T05:59:25;9.10;99.90
23715;DHT22;12036;50.858;4.472;2023-04-15T06:01:51;9.00;99.90
23715;DHT22;12036;50.858;4.472;2023-04-15T06:04:17;9.00;99.90
23715;DHT22;12036;50.858;4.472;2023-04-15T06:06:42;8.90;99.90
23715;DHT22;12036;50.858;4.472;2023-04-15T06:09:09;9.00;99.90
23715;DHT22;12036;50.858;4.472;2023-04-15T06:11:34;9.00;99.90
23715;DHT22;12036;50.858;4.472;2023-04-15T06:14:00;9.00;99.90
23715;DHT22;12036;50.858;4.472;2023-04-15T06:16:26;9.10;99.90
23715;DHT22;12036;50.858;4.472;2023-04-15T06:18:52;9.10;99.90
23715;DHT22;12036;50.858;4.472;2023-04-15T06:21:17;9.30;99.90
23715;DHT22;12036;50.858;4.472;2023-04-15T06:23:53;9.40;99.90
23715;DHT22;12036;50.858;4.472;2023-04-15T06:26:18;9.50;99.90
23715;DHT22;12036;50.858;4.472;2023-04-15T06:28:44;9.50;99.90
23715;DHT22;12036;50.858;4.472;2023-04-15T06:31:09;9.70;99.90
23715;DHT22;12036;50.858;4.472;2023-04-15T06:33:35;9.70;99.90
23715;DHT22;12036;50.858;4.472;2023-04-15T06:36:01;9.70;99.90
23715;DHT22;12036;50.858;4.472;2023-04-15T06:38:26;9.70;99.90
23715;DHT22;12036;50.858;4.472;2023-04-15T06:40:52;9.80;99.90
23715;DHT22;12036;50.858;4.472;2023-04-15T06:43:18;9.90;99.90
23715;DHT22;12036;50.858;4.472;2023-04-15T06:45:44;10.00;99.90
23715;DHT22;12036;50.858;4.472;2023-04-15T06:48:10;10.10;99.90
23715;DHT22;12036;50.858;4.472;2023-04-15T06:50:36;10.30;99.90
23715;DHT22;12036;50.858;4.472;2023-04-15T06:53:02;10.40;99.90
23715;DHT22;12036;50.858;4.472;2023-04-15T06:55:27;10.50;99.90
23715;DHT22;12036;50.858;4.472;2023-04-15T06:57:53;10.70;99.90
23715;DHT22;12036;50.858;4.472;2023-04-15T07:00:18;10.90;99.90
23715;DHT22;12036;50.858;4.472;2023-04-15T07:02:44;11.00;99.90
23715;DHT22;12036;50.858;4.472;2023-04-15T07:05:10;11.30;99.90
23715;DHT22;12036;50.858;4.472;2023-04-15T07:07:37;11.70;99.90
23715;DHT22;12036;50.858;4.472;2023-04-15T07:10:02;12.30;99.90
23715;DHT22;12036;50.858;4.472;2023-04-15T07:12:28;12.90;99.90
23715;DHT22;12036;50.858;4.472;2023-04-15T07:14:54;13.40;99.90
23715;DHT22;12036;50.858;4.472;2023-04-15T07:17:20;13.90;99.90
23715;DHT22;12036;50.858;4.472;2023-04-15T07:19:46;14.30;99.90
23715;DHT22;12036;50.858;4.472;2023-04-15T07:22:12;14.60;99.90
23715;DHT22;12036;50.858;4.472;2023-04-15T07:24:37;14.90;99.90
23715;DHT22;12036;50.858;4.472;2023-04-15T07:27:03;15.00;99.90
23715;DHT22;12036;50.858;4.472;2023-04-15T07:29:29;15.10;99.90
23715;DHT22;12036;50.858;4.472;2023-04-15T07:31:54;15.00;99.80
23715;DHT22;12036;50.858;4.472;2023-04-15T07:34:21;15.00;98.60
23715;DHT22;12036;50.858;4.472;2023-04-15T07:36:47;15.00;97.30
23715;DHT22;12036;50.858;4.472;2023-04-15T07:39:15;14.80;97.30
23715;DHT22;12036;50.858;4.472;2023-04-15T07:41:41;14.80;98.60
23715;DHT22;12036;50.858;4.472;2023-04-15T07:44:06;15.10;98.00
23715;DHT22;12036;50.858;4.472;2023-04-15T07:46:32;15.70;95.40
23715;DHT22;12036;50.858;4.472;2023-04-15T07:48:57;16.20;93.80
23715;DHT22;12036;50.858;4.472;2023-04-15T07:51:23;16.60;93.10
23715;DHT22;12036;50.858;4.472;2023-04-15T07:53:49;17.40;92.10
23715;DHT22;12036;50.858;4.472;2023-04-15T07:56:15;18.50;84.10
23715;DHT22;12036;50.858;4.472;2023-04-15T07:58:41;19.40;78.30
23715;DHT22;12036;50.858;4.472;2023-04-15T08:01:06;19.80;73.60
23715;DHT22;12036;50.858;4.472;2023-04-15T08:03:32;19.50;73.60
23715;DHT22;12036;50.858;4.472;2023-04-15T08:05:58;19.30;72.80
23715;DHT22;12036;50.858;4.472;2023-04-15T08:08:24;19.00;75.70
23715;DHT22;12036;50.858;4.472;2023-04-15T08:10:50;19.20;75.60
23715;DHT22;12036;50.858;4.472;2023-04-15T08:13:17;19.00;75.40
23715;DHT22;12036;50.858;4.472;2023-04-15T08:15:42;18.80;72.80
23715;DHT22;12036;50.858;4.472;2023-04-15T08:18:08;18.60;73.80
23715;DHT22;12036;50.858;4.472;2023-04-15T08:20:34;18.40;75.60
23715;DHT22;12036;50.858;4.472;2023-04-15T08:22:59;18.20;75.70
23715;DHT22;12036;50.858;4.472;2023-04-15T08:25:25;18.00;77.20
23715;DHT22;12036;50.858;4.472;2023-04-15T08:27:54;17.70;77.00
23715;DHT22;12036;50.858;4.472;2023-04-15T08:30:19;17.50;76.90
23715;DHT22;12036;50.858;4.472;2023-04-15T08:32:46;17.50;77.50
23715;DHT22;12036;50.858;4.472;2023-04-15T08:35:12;17.70;77.30
23715;DHT22;12036;50.858;4.472;2023-04-15T08:37:38;17.80;77.20
23715;DHT22;12036;50.858;4.472;2023-04-15T08:40:04;17.90;76.00
23715;DHT22;12036;50.858;4.472;2023-04-15T08:42:36;18.10;76.10
23715;DHT22;12036;50.858;4.472;2023-04-15T08:45:08;18.70;73.10
23715;DHT22;12036;50.858;4.472;2023-04-15T08:47:37;19.40;69.90
23715;DHT22;12036;50.858;4.472;2023-04-15T08:50:04;19.90;70.00
23715;DHT22;12036;50.858;4.472;2023-04-15T08:52:33;20.80;67.10
23715;DHT22;12036;50.858;4.472;2023-04-15T08:55:01;21.50;62.60
23715;DHT22;12036;50.858;4.472;2023-04-15T08:57:27;21.50;61.70
23715;DHT22;12036;50.858;4.472;2023-04-15T08:59:56;21.70;61.80
23715;DHT22;12036;50.858;4.472;2023-04-15T09:02:25;21.80;60.60
23715;DHT22;12036;50.858;4.472;2023-04-15T09:04:52;22.50;58.20
23715;DHT22;12036;50.858;4.472;2023-04-15T09:07:18;22.90;57.40
23715;DHT22;12036;50.858;4.472;2023-04-15T09:09:43;23.20;57.50
23715;DHT22;12036;50.858;4.472;2023-04-15T09:12:10;23.90;52.70
23715;DHT22;12036;50.858;4.472;2023-04-15T09:14:37;23.50;52.30
23715;DHT22;12036;50.858;4.472;2023-04-15T09:17:04;23.10;52.10
23715;DHT22;12036;50.858;4.472;2023-04-15T09:19:31;22.90;52.50
23715;DHT22;12036;50.858;4.472;2023-04-15T09:21:58;22.70;52.50
23715;DHT22;12036;50.858;4.472;2023-04-15T09:24:25;23.00;51.20
23715;DHT22;12036;50.858;4.472;2023-04-15T09:26:57;23.10;51.20
23715;DHT22;12036;50.858;4.472;2023-04-15T09:29:24;23.80;50.20
23715;DHT22;12036;50.858;4.472;2023-04-15T09:31:51;24.40;49.60
23715;DHT22;12036;50.858;4.472;2023-04-15T09:34:17;25.10;48.30
23715;DHT22;12036;50.858;4.472;2023-04-15T09:39:11;25.70;47.70
23715;DHT22;12036;50.858;4.472;2023-04-15T09:41:36;25.90;46.50
23715;DHT22;12036;50.858;4.472;2023-04-15T09:44:03;25.70;45.90
23715;DHT22;12036;50.858;4.472;2023-04-15T09:46:44;25.70;45.80
23715;DHT22;12036;50.858;4.472;2023-04-15T09:49:11;25.70;45.10
23715;DHT22;12036;50.858;4.472;2023-04-15T09:51:37;25.80;44.60
23715;DHT22;12036;50.858;4.472;2023-04-15T09:54:03;25.40;45.00
23715;DHT22;12036;50.858;4.472;2023-04-15T09:56:38;25.30;45.00
23715;DHT22;12036;50.858;4.472;2023-04-15T09:59:08;25.30;45.50
23715;DHT22;12036;50.858;4.472;2023-04-15T10:01:34;25.40;44.80
23715;DHT22;12036;50.858;4.472;2023-04-15T10:04:03;25.50;45.00
23715;DHT22;12036;50.858;4.472;2023-04-15T10:06:29;25.70;43.60
23715;DHT22;12036;50.858;4.472;2023-04-15T10:08:57;25.40;43.20
23715;DHT22;12036;50.858;4.472;2023-04-15T10:11:23;25.20;44.00
23715;DHT22;12036;50.858;4.472;2023-04-15T10:13:49;25.00;43.90
23715;DHT22;12036;50.858;4.472;2023-04-15T10:16:19;24.80;43.70
23715;DHT22;12036;50.858;4.472;2023-04-15T10:18:47;24.90;44.20
23715;DHT22;12036;50.858;4.472;2023-04-15T10:21:13;25.20;44.30
23715;DHT22;12036;50.858;4.472;2023-04-15T10:23:45;25.10;44.50
23715;DHT22;12036;50.858;4.472;2023-04-15T10:26:12;24.90;44.80
23715;DHT22;12036;50.858;4.472;2023-04-15T10:28:40;25.20;43.90
23715;DHT22;12036;50.858;4.472;2023-04-15T10:31:06;25.40;42.70
23715;DHT22;12036;50.858;4.472;2023-04-15T10:33:32;25.30;43.30
23715;DHT22;12036;50.858;4.472;2023-04-15T10:35:59;25.00;43.50
23715;DHT22;12036;50.858;4.472;2023-04-15T10:38:39;24.80;44.40
23715;DHT22;12036;50.858;4.472;2023-04-15T10:41:11;24.60;43.80
23715;DHT22;12036;50.858;4.472;2023-04-15T10:43:37;24.60;43.20
23715;DHT22;12036;50.858;4.472;2023-04-15T10:46:05;24.50;43.00
23715;DHT22;12036;50.858;4.472;2023-04-15T10:48:31;24.30;43.60
23715;DHT22;12036;50.858;4.472;2023-04-15T10:50:59;24.30;43.80
23715;DHT22;12036;50.858;4.472;2023-04-15T10:53:27;24.30;43.90
23715;DHT22;12036;50.858;4.472;2023-04-15T10:55:53;24.50;41.70
23715;DHT22;12036;50.858;4.472;2023-04-15T10:58:23;24.20;41.80
23715;DHT22;12036;50.858;4.472;2023-04-15T11:00:51;23.90;42.50
23715;DHT22;12036;50.858;4.472;2023-04-15T11:03:36;23.60;41.20
23715;DHT22;12036;50.858;4.472;2023-04-15T11:06:04;23.50;42.30
23715;DHT22;12036;50.858;4.472;2023-04-15T11:08:56;23.60;41.50
23715;DHT22;12036;50.858;4.472;2023-04-15T11:12:31;23.50;41.40
23715;DHT22;12036;50.858;4.472;2023-04-15T11:14:29;23.70;37.70
23715;DHT22;12036;50.858;4.472;2023-04-15T11:16:54;23.50;38.40
23715;DHT22;12036;50.858;4.472;2023-04-15T11:19:20;23.60;37.60
23715;DHT22;12036;50.858;4.472;2023-04-15T11:21:46;23.60;38.90
23715;DHT22;12036;50.858;4.472;2023-04-15T11:24:23;23.50;40.10
23715;DHT22;12036;50.858;4.472;2023-04-15T11:26:56;23.80;40.00
23715;DHT22;12036;50.858;4.472;2023-04-15T11:29:30;23.70;40.30
23715;DHT22;12036;50.858;4.472;2023-04-15T11:32:08;23.30;40.70
23715;DHT22;12036;50.858;4.472;2023-04-15T11:34:34;23.00;39.90
23715;DHT22;12036;50.858;4.472;2023-04-15T11:37:04;23.20;39.70
23715;DHT22;12036;50.858;4.472;2023-04-15T11:39:31;23.30;39.90
23715;DHT22;12036;50.858;4.472;2023-04-15T11:41:57;22.90;39.50
23715;DHT22;12036;50.858;4.472;2023-04-15T11:44:22;23.00;37.70
23715;DHT22;12036;50.858;4.472;2023-04-15T11:46:48;22.60;38.60
23715;DHT22;12036;50.858;4.472;2023-04-15T11:49:28;22.20;39.30
23715;DHT22;12036;50.858;4.472;2023-04-15T11:51:55;21.40;41.60
23715;DHT22;12036;50.858;4.472;2023-04-15T11:54:20;21.10;42.10
23715;DHT22;12036;50.858;4.472;2023-04-15T11:56:50;20.60;42.60
23715;DHT22;12036;50.858;4.472;2023-04-15T11:59:16;20.20;43.70
23715;DHT22;12036;50.858;4.472;2023-04-15T12:01:42;20.00;41.60
23715;DHT22;12036;50.858;4.472;2023-04-15T12:04:15;19.80;41.40
23715;DHT22;12036;50.858;4.472;2023-04-15T12:06:47;19.90;42.30
23715;DHT22;12036;50.858;4.472;2023-04-15T12:09:14;19.70;42.40
23715;DHT22;12036;50.858;4.472;2023-04-15T12:11:50;19.60;42.60
23715;DHT22;12036;50.858;4.472;2023-04-15T12:14:30;19.70;40.10
23715;DHT22;12036;50.858;4.472;2023-04-15T12:17:03;19.60;39.80
23715;DHT22;12036;50.858;4.472;2023-04-15T12:22:07;19.20;40.40
23715;DHT22;12036;50.858;4.472;2023-04-15T12:24:34;19.00;39.40
23715;DHT22;12036;50.858;4.472;2023-04-15T12:27:05;19.10;42.40
23715;DHT22;12036;50.858;4.472;2023-04-15T12:29:32;19.20;43.40
23715;DHT22;12036;50.858;4.472;2023-04-15T12:32:05;19.20;42.80
23715;DHT22;12036;50.858;4.472;2023-04-15T12:34:33;19.20;42.90
23715;DHT22;12036;50.858;4.472;2023-04-15T12:37:01;19.10;43.40
23715;DHT22;12036;50.858;4.472;2023-04-15T12:39:30;19.10;43.10
23715;DHT22;12036;50.858;4.472;2023-04-15T12:41:58;19.20;44.00
23715;DHT22;12036;50.858;4.472;2023-04-15T12:44:24;19.20;43.90
23715;DHT22;12036;50.858;4.472;2023-04-15T12:46:51;19.10;43.40
23715;DHT22;12036;50.858;4.472;2023-04-15T12:49:20;19.20;43.60
23715;DHT22;12036;50.858;4.472;2023-04-15T12:51:51;19.20;44.90
23715;DHT22;12036;50.858;4.472;2023-04-15T12:54:18;19.20;43.60
23715;DHT22;12036;50.858;4.472;2023-04-15T12:56:48;19.30;43.70
23715;DHT22;12036;50.858;4.472;2023-04-15T12:59:15;19.30;43.10
23715;DHT22;12036;50.858;4.472;2023-04-15T13:01:43;19.20;43.70
23715;DHT22;12036;50.858;4.472;2023-04-15T13:04:08;19.00;44.10
23715;DHT22;12036;50.858;4.472;2023-04-15T13:06:34;18.90;46.10
23715;DHT22;12036;50.858;4.472;2023-04-15T13:09:00;18.90;44.30
23715;DHT22;12036;50.858;4.472;2023-04-15T13:11:27;18.90;42.30
23715;DHT22;12036;50.858;4.472;2023-04-15T13:13:55;19.10;42.10
23715;DHT22;12036;50.858;4.472;2023-04-15T13:16:22;19.20;42.00
23715;DHT22;12036;50.858;4.472;2023-04-15T13:18:48;19.00;43.60
23715;DHT22;12036;50.858;4.472;2023-04-15T13:21:13;19.10;42.60
23715;DHT22;12036;50.858;4.472;2023-04-15T13:23:42;19.00;42.40
23715;DHT22;12036;50.858;4.472;2023-04-15T13:26:08;18.90;42.90
23715;DHT22;12036;50.858;4.472;2023-04-15T13:28:34;18.80;42.90
23715;DHT22;12036;50.858;4.472;2023-04-15T13:30:59;18.70;43.10
23715;DHT22;12036;50.858;4.472;2023-04-15T13:33:26;18.70;44.40
23715;DHT22;12036;50.858;4.472;2023-04-15T13:35:51;18.70;45.80
23715;DHT22;12036;50.858;4.472;2023-04-15T13:38:17;18.70;46.30
23715;DHT22;12036;50.858;4.472;2023-04-15T13:40:43;18.80;45.60
23715;DHT22;12036;50.858;4.472;2023-04-15T13:43:08;18.60;46.10
23715;DHT22;12036;50.858;4.472;2023-04-15T13:45:34;18.70;45.60
23715;DHT22;12036;50.858;4.472;2023-04-15T13:48:00;18.60;46.50
23715;DHT22;12036;50.858;4.472;2023-04-15T13:50:27;18.50;46.50
23715;DHT22;12036;50.858;4.472;2023-04-15T13:52:53;18.40;46.50
23715;DHT22;12036;50.858;4.472;2023-04-15T13:55:18;18.60;46.40
23715;DHT22;12036;50.858;4.472;2023-04-15T13:57:44;18.70;45.90
23715;DHT22;12036;50.858;4.472;2023-04-15T14:00:10;18.50;46.60
23715;DHT22;12036;50.858;4.472;2023-04-15T14:02:36;18.40;45.40
23715;DHT22;12036;50.858;4.472;2023-04-15T14:05:02;18.30;45.00
23715;DHT22;12036;50.858;4.472;2023-04-15T14:07:29;18.20;45.20
23715;DHT22;12036;50.858;4.472;2023-04-15T14:09:55;18.10;45.90
23715;DHT22;12036;50.858;4.472;2023-04-15T14:12:21;18.00;45.20
23715;DHT22;12036;50.858;4.472;2023-04-15T14:14:46;18.10;45.40
23715;DHT22;12036;50.858;4.472;2023-04-15T14:17:12;18.10;46.60
23715;DHT22;12036;50.858;4.472;2023-04-15T14:19:38;18.10;46.80
23715;DHT22;12036;50.858;4.472;2023-04-15T14:22:04;18.10;46.80
23715;DHT22;12036;50.858;4.472;2023-04-15T14:24:30;18.00;46.30
23715;DHT22;12036;50.858;4.472;2023-04-15T14:26:55;18.00;43.70
23715;DHT22;12036;50.858;4.472;2023-04-15T14:29:22;17.90;43.90
23715;DHT22;12036;50.858;4.472;2023-04-15T14:31:47;17.90;44.10
23715;DHT22;12036;50.858;4.472;2023-04-15T14:34:15;17.90;44.30
23715;DHT22;12036;50.858;4.472;2023-04-15T14:36:41;17.90;43.90
23715;DHT22;12036;50.858;4.472;2023-04-15T14:39:07;17.80;44.50
23715;DHT22;12036;50.858;4.472;2023-04-15T14:41:33;17.70;44.60
23715;DHT22;12036;50.858;4.472;2023-04-15T14:43:58;17.80;45.10
23715;DHT22;12036;50.858;4.472;2023-04-15T14:46:25;17.60;45.50
23715;DHT22;12036;50.858;4.472;2023-04-15T14:48:50;17.60;46.70
23715;DHT22;12036;50.858;4.472;2023-04-15T14:51:17;17.50;46.80
23715;DHT22;12036;50.858;4.472;2023-04-15T14:53:42;17.50;47.20
23715;DHT22;12036;50.858;4.472;2023-04-15T14:56:08;17.40;47.80
23715;DHT22;12036;50.858;4.472;2023-04-15T14:58:34;17.40;48.30
23715;DHT22;12036;50.858;4.472;2023-04-15T15:01:05;17.40;49.00
23715;DHT22;12036;50.858;4.472;2023-04-15T15:03:31;17.20;50.00
23715;DHT22;12036;50.858;4.472;2023-04-15T15:05:57;17.00;50.50
23715;DHT22;12036;50.858;4.472;2023-04-15T15:08:23;16.70;51.30
23715;DHT22;12036;50.858;4.472;2023-04-15T15:10:49;16.50;51.70
23715;DHT22;12036;50.858;4.472;2023-04-15T15:13:14;16.40;52.20
23715;DHT22;12036;50.858;4.472;2023-04-15T15:15:41;16.60;52.90
23715;DHT22;12036;50.858;4.472;2023-04-15T15:18:06;16.50;53.50
23715;DHT22;12036;50.858;4.472;2023-04-15T15:20:32;16.40;53.60
23715;DHT22;12036;50.858;4.472;2023-04-15T15:22:59;16.20;53.80
23715;DHT22;12036;50.858;4.472;2023-04-15T15:25:25;16.00;54.20
23715;DHT22;12036;50.858;4.472;2023-04-15T15:27:50;16.10;54.60
23715;DHT22;12036;50.858;4.472;2023-04-15T15:30:16;16.20;55.10
23715;DHT22;12036;50.858;4.472;2023-04-15T15:32:42;16.30;55.10
23715;DHT22;12036;50.858;4.472;2023-04-15T15:35:08;16.40;54.60
23715;DHT22;12036;50.858;4.472;2023-04-15T15:37:35;16.40;55.30
23715;DHT22;12036;50.858;4.472;2023-04-15T15:40:04;16.60;54.90